Hanover, PA (17331)

4:54 AM EST on January 19, 2017 (GMT -0500)
West Hanover | | Change Station

Elev 597 ft 39.80 °N, 76.99 °W | Updated 15 seconds ago

Overcast
Overcast
41.5 °F
Feels Like 42 °F
N
0.0
Wind Variable Wind from North

Today
High -- | Low -- °F
--% Chance of Precip.
Yesterday
High -- | Low -- °F
Precip. -- in
Pressure 30.07 in
Visibility 10.0 miles
Clouds Overcast 3600 ft
Windchill 42 °F
Dew Point 35 °F
Humidity 79%
Rainfall 0.00 in
Snow Depth Not available.
7:25 AM 5:12 PM
Waning Gibbous, 55% visible
METAR KTHV 190853Z AUTO 30003KT 10SM OVC036 05/02 A3006 RMK AO2 SLP183 T00500022 50002
Pressure 30.07 in
Visibility 10.0 miles
Clouds Overcast 3600 ft
Windchill 42 °F
Dew Point 35 °F
Humidity 79%
Rainfall 0.00 in
Snow Depth Not available.
7:25 AM 5:12 PM
Waning Gibbous, 55% visible
METAR KTHV 190853Z AUTO 30003KT 10SM OVC036 05/02 A3006 RMK AO2 SLP183 T00500022 50002

Get Your Daily Forecast Email!

Thanks for signing up!

Be on the lookout for a verification email in your inbox.

You'll start receiving the daily forecast at 8 AM.

×

10-Day Weather Forecast

Almanac

Astronomy

Jan. 19, 2017 Rise Set
Actual Time
Civil Twilight
Nautical Twilight
Astronomical Twilight
Moon
Length of Visible Light
Length of Day
Tomorrow will be .
, % of the Moon is Illuminated

Today's Extremes

State Highs State Lows

Community

WunderPhotos

Upload Photos

1,962,540 photos uploaded!

WunderBlog® & News

Nearby

Air Quality

  Air Quality AQ Index Pollutant
Not available.

Snow Depth

Station Depth Elevation

Earthquake Activity

City Distance Mag. Time & Date
Minimum magnitude displayed is 2.5.

Coastal Water Temperatures

Place Temperature

Stations

Nearby Weather Stations

Station Location Temp. Windchill Dew Point Humidity Wind Precip. Elev Updated Type
                   

Watches & Warnings

There are currently no watches in effect.